Time;durP1;ratioP1;P1;durP2;ratioP2;P2;SDS_P1;SDS_P2;PMS_P1;PMS_P2;Temp;Humidity;BMP_temperature;BMP_pressure;BME280_temperature;BME280_humidity;BME280_pressure;Samples;Min_cycle;Max_cycle;Signal;HPM_P1;HPM_P2
2024/02/03 00:00:06;;;;;;;7.65;6.20;;;8.70;99.90;;;;;;5052377;28;20025;-54
2024/02/03 00:02:31;;;;;;;9.25;6.57;;;8.70;99.90;;;;;;5052376;28;20025;-52
2024/02/03 00:04:57;;;;;;;6.35;5.43;;;8.70;99.90;;;;;;5034651;28;20160;-49
2024/02/03 00:07:23;;;;;;;7.07;5.68;;;8.70;99.90;;;;;;5052339;28;20028;-50
2024/02/03 00:09:48;;;;;;;6.53;5.88;;;8.80;99.90;;;;;;5052195;28;20021;-55
2024/02/03 00:12:15;;;;;;;7.53;6.60;;;8.80;99.90;;;;;;5054055;28;20021;-54
2024/02/03 00:14:41;;;;;;;8.18;5.65;;;8.80;99.90;;;;;;5053237;28;20021;-57
2024/02/03 00:17:07;;;;;;;8.43;5.88;;;8.80;99.90;;;;;;5034456;28;20025;-55
2024/02/03 00:19:32;;;;;;;7.53;5.88;;;8.70;99.90;;;;;;5051687;28;20029;-48
2024/02/03 00:21:58;;;;;;;7.35;5.97;;;8.70;99.90;;;;;;5052213;28;20032;-50
2024/02/03 00:24:24;;;;;;;7.53;6.07;;;8.70;99.90;;;;;;5051803;28;20033;-50
2024/02/03 00:26:49;;;;;;;6.35;5.72;;;8.70;99.90;;;;;;5051853;28;20029;-48
2024/02/03 00:29:15;;;;;;;6.85;5.47;;;8.80;99.90;;;;;;5034641;28;20113;-55
2024/02/03 00:31:40;;;;;;;7.68;6.03;;;8.80;99.90;;;;;;5052314;28;20626;-50
2024/02/03 00:34:06;;;;;;;6.38;5.57;;;8.80;99.90;;;;;;5051383;28;20033;-50
2024/02/03 00:36:31;;;;;;;7.13;6.00;;;8.80;99.90;;;;;;5051802;28;20474;-56
2024/02/03 00:38:58;;;;;;;7.78;5.18;;;8.80;99.90;;;;;;5033800;28;20046;-51
2024/02/03 00:41:24;;;;;;;6.63;5.47;;;8.80;99.90;;;;;;5051896;28;20032;-53
2024/02/03 00:43:49;;;;;;;7.80;6.07;;;8.70;99.90;;;;;;5051200;28;20425;-51
2024/02/03 00:46:15;;;;;;;7.50;5.50;;;8.70;99.90;;;;;;5051697;28;20031;-51
2024/02/03 00:48:40;;;;;;;7.68;5.72;;;8.70;99.90;;;;;;5033625;28;20036;-49
2024/02/03 00:51:09;;;;;;;7.93;5.45;;;8.70;99.90;;;;;;5051355;28;20029;-54
2024/02/03 00:53:36;;;;;;;6.35;5.30;;;8.70;99.90;;;;;;5051083;28;20504;-50
2024/02/03 00:56:02;;;;;;;8.32;5.45;;;8.70;99.90;;;;;;5034216;28;20067;-51
2024/02/03 00:58:28;;;;;;;7.32;5.95;;;8.70;99.90;;;;;;5051480;28;20048;-51
2024/02/03 01:00:54;;;;;;;7.28;5.63;;;8.70;99.90;;;;;;5051407;28;20029;-49
2024/02/03 01:03:19;;;;;;;7.07;5.28;;;8.70;99.90;;;;;;5051711;28;20029;-53
2024/02/03 01:05:45;;;;;;;8.38;6.10;;;8.60;99.90;;;;;;5051442;28;20032;-52
2024/02/03 01:08:10;;;;;;;7.63;5.97;;;8.70;99.90;;;;;;5051173;28;20029;-51
2024/02/03 01:10:36;;;;;;;7.93;6.30;;;8.70;99.90;;;;;;5033322;28;20506;-52
2024/02/03 01:13:01;;;;;;;7.03;5.75;;;8.70;99.90;;;;;;5050745;28;20112;-52
2024/02/03 01:15:27;;;;;;;6.20;5.25;;;8.60;99.90;;;;;;5051162;28;20013;-53
2024/02/03 01:17:52;;;;;;;6.28;5.65;;;8.60;99.90;;;;;;5051090;28;20036;-53
2024/02/03 01:20:18;;;;;;;6.65;5.15;;;8.60;99.90;;;;;;5051102;28;20025;-50
2024/02/03 01:22:43;;;;;;;6.55;5.28;;;8.60;99.90;;;;;;5050902;28;20031;-52
2024/02/03 01:25:09;;;;;;;7.15;5.70;;;8.60;99.90;;;;;;5050876;28;20047;-55
2024/02/03 01:27:34;;;;;;;7.18;5.35;;;8.50;99.90;;;;;;5032892;28;20024;-53
2024/02/03 01:30:00;;;;;;;6.68;5.47;;;8.60;99.90;;;;;;5051100;28;20017;-51
2024/02/03 01:32:25;;;;;;;9.60;6.15;;;8.60;99.90;;;;;;5054964;28;20505;-55
2024/02/03 01:34:51;;;;;;;9.50;5.13;;;8.50;99.90;;;;;;5054747;28;20021;-52
2024/02/03 01:37:16;;;;;;;7.82;5.40;;;8.50;99.90;;;;;;5055037;28;20486;-49
2024/02/03 01:39:42;;;;;;;10.60;6.53;;;8.50;99.90;;;;;;5037016;28;20497;-50
2024/02/03 01:42:08;;;;;;;6.63;5.82;;;8.50;99.90;;;;;;5036849;28;20502;-56
2024/02/03 01:44:33;;;;;;;9.52;6.25;;;8.50;99.90;;;;;;5054524;28;20082;-49
2024/02/03 01:46:59;;;;;;;8.80;5.63;;;8.50;99.90;;;;;;5036830;28;20032;-49
2024/02/03 01:49:30;;;;;;;6.93;5.75;;;8.50;99.90;;;;;;5054837;28;20032;-49
2024/02/03 01:51:56;;;;;;;8.75;6.00;;;8.60;99.90;;;;;;5036805;28;20145;-50
2024/02/03 01:54:22;;;;;;;7.72;6.40;;;8.50;99.90;;;;;;5036704;28;20029;-50
2024/02/03 01:56:49;;;;;;;9.45;6.53;;;8.50;99.90;;;;;;5054581;28;20029;-52
2024/02/03 01:59:15;;;;;;;8.15;5.75;;;8.50;99.90;;;;;;5036652;28;20021;-52
2024/02/03 02:01:41;;;;;;;7.75;5.82;;;8.40;99.90;;;;;;5054588;28;20100;-52
2024/02/03 02:04:07;;;;;;;7.50;5.68;;;8.50;99.90;;;;;;5054146;28;20117;-53
2024/02/03 02:06:32;;;;;;;7.28;5.63;;;8.50;99.90;;;;;;5054584;28;20100;-49
2024/02/03 02:08:58;;;;;;;8.55;5.72;;;8.50;99.90;;;;;;5054330;28;20032;-49
2024/02/03 02:11:24;;;;;;;10.82;6.03;;;8.50;99.90;;;;;;5054343;28;20071;-53
2024/02/03 02:13:50;;;;;;;7.45;6.07;;;8.50;99.90;;;;;;5054033;28;20032;-51
2024/02/03 02:16:15;;;;;;;7.38;6.03;;;8.40;99.90;;;;;;5054278;28;20033;-53
2024/02/03 02:18:41;;;;;;;7.30;5.70;;;8.50;99.90;;;;;;5054351;28;20025;-51
2024/02/03 02:21:06;;;;;;;7.60;6.80;;;8.50;99.90;;;;;;5054333;28;20390;-54
2024/02/03 02:23:32;;;;;;;7.75;6.18;;;8.50;99.90;;;;;;5054080;28;20478;-55
2024/02/03 02:25:57;;;;;;;9.57;6.30;;;8.50;99.90;;;;;;5053946;28;20040;-56
2024/02/03 02:28:24;;;;;;;10.38;6.45;;;8.50;99.90;;;;;;5054022;28;20025;-53
2024/02/03 02:30:49;;;;;;;8.05;6.43;;;8.50;99.90;;;;;;5053981;28;20066;-56
2024/02/03 02:33:15;;;;;;;7.55;6.45;;;8.50;99.90;;;;;;5053792;28;20389;-50
2024/02/03 02:35:41;;;;;;;9.10;7.15;;;8.50;99.90;;;;;;5036085;28;20615;-51
2024/02/03 02:38:07;;;;;;;8.82;6.57;;;8.50;99.90;;;;;;5036300;28;20436;-51
2024/02/03 02:40:33;;;;;;;7.78;6.25;;;8.40;99.90;;;;;;5053867;28;20124;-56
2024/02/03 02:42:59;;;;;;;7.78;6.47;;;8.50;99.90;;;;;;5035365;28;20533;-51
2024/02/03 02:45:24;;;;;;;9.13;5.95;;;8.50;99.90;;;;;;5053872;28;20103;-53
2024/02/03 02:47:49;;;;;;;8.63;6.43;;;8.50;99.90;;;;;;5053523;28;20025;-49
2024/02/03 02:50:15;;;;;;;7.95;6.10;;;8.50;99.90;;;;;;5053747;28;20501;-53
2024/02/03 02:52:41;;;;;;;6.40;5.32;;;8.50;99.90;;;;;;5053635;28;20074;-54
2024/02/03 02:55:07;;;;;;;6.18;5.28;;;8.50;99.90;;;;;;5053100;28;20041;-56
2024/02/03 02:57:32;;;;;;;6.90;5.63;;;8.60;99.90;;;;;;5053559;28;20464;-52
2024/02/03 02:59:58;;;;;;;9.48;5.78;;;8.60;99.90;;;;;;5053499;28;20033;-54
2024/02/03 03:02:23;;;;;;;6.30;5.47;;;8.60;99.90;;;;;;5053406;28;20040;-54
2024/02/03 03:04:48;;;;;;;7.50;6.05;;;8.60;99.90;;;;;;5053277;28;20090;-56
2024/02/03 03:07:16;;;;;;;7.40;6.20;;;8.60;99.90;;;;;;5053342;28;20532;-51
2024/02/03 03:09:42;;;;;;;7.40;5.72;;;8.60;99.90;;;;;;5035443;28;20032;-54
2024/02/03 03:12:09;;;;;;;8.35;6.82;;;8.50;99.90;;;;;;5035238;28;20167;-55
2024/02/03 03:14:35;;;;;;;8.43;6.43;;;8.50;99.90;;;;;;5052849;28;20429;-50
2024/02/03 03:17:00;;;;;;;7.82;6.18;;;8.60;99.90;;;;;;5053140;28;20025;-51
2024/02/03 03:19:26;;;;;;;7.13;5.72;;;8.60;99.90;;;;;;5053102;28;20107;-51
2024/02/03 03:21:51;;;;;;;8.77;5.93;;;8.60;99.90;;;;;;5053027;28;20021;-55
2024/02/03 03:24:17;;;;;;;7.65;5.57;;;8.60;99.90;;;;;;5052639;28;20055;-51
2024/02/03 03:26:43;;;;;;;9.18;6.10;;;8.60;99.90;;;;;;5053088;28;20052;-49
2024/02/03 03:29:08;;;;;;;8.27;6.00;;;8.60;99.90;;;;;;5052876;28;20028;-51
2024/02/03 03:31:34;;;;;;;7.10;6.03;;;8.50;99.90;;;;;;5052874;28;20142;-54
2024/02/03 03:33:59;;;;;;;8.43;6.53;;;8.60;99.90;;;;;;5034632;28;20070;-50
2024/02/03 03:36:25;;;;;;;8.05;6.03;;;8.60;99.90;;;;;;5052982;28;20390;-52
2024/02/03 03:38:51;;;;;;;8.93;7.07;;;8.60;99.90;;;;;;5052729;28;20548;-52
2024/02/03 03:41:16;;;;;;;10.55;6.60;;;8.60;99.90;;;;;;5052697;28;20486;-52
2024/02/03 03:43:41;;;;;;;6.95;6.25;;;8.60;99.90;;;;;;5052390;28;20394;-51
2024/02/03 03:46:08;;;;;;;9.85;5.93;;;8.60;99.90;;;;;;5052655;28;20033;-50
2024/02/03 03:48:33;;;;;;;7.80;6.70;;;8.60;99.90;;;;;;5034559;28;20025;-52
2024/02/03 03:50:59;;;;;;;9.23;6.93;;;8.60;99.90;;;;;;5052558;28;20017;-53
2024/02/03 03:53:24;;;;;;;9.25;6.82;;;8.60;99.90;;;;;;5051195;28;20116;-52
2024/02/03 03:55:50;;;;;;;10.43;6.65;;;8.70;99.90;;;;;;5052250;28;20029;-51
2024/02/03 03:58:15;;;;;;;8.13;6.55;;;8.70;99.90;;;;;;5034580;28;20367;-50
2024/02/03 04:00:41;;;;;;;9.77;6.07;;;8.60;99.90;;;;;;5034927;28;20021;-52
2024/02/03 04:03:07;;;;;;;8.43;6.35;;;8.70;99.90;;;;;;5052151;28;20029;-52
2024/02/03 04:05:32;;;;;;;9.70;6.25;;;8.80;99.90;;;;;;5034623;28;20116;-53
2024/02/03 04:07:58;;;;;;;8.45;5.78;;;8.70;99.90;;;;;;5034428;28;20025;-51
2024/02/03 04:10:23;;;;;;;9.45;6.00;;;8.70;99.90;;;;;;5052336;28;20029;-55
2024/02/03 04:12:48;;;;;;;8.23;5.93;;;8.60;99.90;;;;;;5052270;28;20038;-51
2024/02/03 04:15:14;;;;;;;7.68;6.03;;;8.70;99.90;;;;;;5052428;28;20083;-54
2024/02/03 04:17:40;;;;;;;12.75;6.40;;;8.70;99.90;;;;;;5052523;28;20036;-55
2024/02/03 04:20:06;;;;;;;7.95;6.25;;;8.70;99.90;;;;;;5052781;28;20024;-52
2024/02/03 04:22:32;;;;;;;8.00;6.18;;;8.60;99.90;;;;;;5052129;28;20025;-51
2024/02/03 04:24:57;;;;;;;6.82;5.75;;;8.60;99.90;;;;;;5051976;28;20569;-54
2024/02/03 04:27:23;;;;;;;8.13;5.93;;;8.70;99.90;;;;;;5034617;28;20024;-53
2024/02/03 04:29:48;;;;;;;7.90;6.28;;;8.60;99.90;;;;;;5052636;28;20035;-53
2024/02/03 04:32:14;;;;;;;9.18;5.30;;;8.70;99.90;;;;;;5052082;28;20032;-54
2024/02/03 04:34:40;;;;;;;7.60;5.80;;;8.60;99.90;;;;;;5033892;28;20070;-55
2024/02/03 04:37:05;;;;;;;6.78;6.07;;;8.70;99.90;;;;;;5051871;28;20024;-50
2024/02/03 04:39:31;;;;;;;10.85;5.43;;;8.60;99.90;;;;;;5052534;28;20021;-52
2024/02/03 04:41:57;;;;;;;4.72;4.22;;;8.60;99.90;;;;;;5052188;28;20383;-54
2024/02/03 04:44:22;;;;;;;6.13;5.35;;;8.60;99.90;;;;;;5033957;28;20078;-56
2024/02/03 04:46:48;;;;;;;5.97;4.65;;;8.50;99.90;;;;;;5051621;28;20067;-54
2024/02/03 04:49:13;;;;;;;5.15;4.30;;;8.50;99.90;;;;;;5051614;28;20039;-51
2024/02/03 04:51:39;;;;;;;5.32;3.78;;;8.50;99.90;;;;;;5051550;28;20389;-55
2024/02/03 04:54:05;;;;;;;4.07;3.67;;;8.40;99.90;;;;;;5033204;28;20021;-56
2024/02/03 04:56:30;;;;;;;4.68;3.67;;;8.40;99.90;;;;;;5051542;28;20013;-49
2024/02/03 04:58:56;;;;;;;4.63;4.00;;;8.50;99.90;;;;;;5051491;28;20040;-51
2024/02/03 05:01:22;;;;;;;4.30;3.90;;;8.40;99.90;;;;;;5051303;28;20107;-54
2024/02/03 05:03:47;;;;;;;3.58;3.15;;;8.40;99.90;;;;;;5051125;28;20064;-52
2024/02/03 05:06:13;;;;;;;3.78;3.47;;;8.40;99.90;;;;;;5050952;28;20032;-54
2024/02/03 05:08:39;;;;;;;4.93;3.60;;;8.40;99.90;;;;;;5051350;28;20029;-53
2024/02/03 05:11:04;;;;;;;4.63;3.95;;;8.40;99.90;;;;;;5051702;28;20036;-52
2024/02/03 05:13:30;;;;;;;4.90;3.63;;;8.30;99.90;;;;;;5051259;28;20029;-54
2024/02/03 05:15:55;;;;;;;6.65;3.78;;;8.40;99.90;;;;;;5051538;28;20025;-51
2024/02/03 05:18:24;;;;;;;4.30;3.90;;;8.40;99.90;;;;;;5051458;28;20033;-53
2024/02/03 05:20:49;;;;;;;4.15;3.67;;;8.40;99.90;;;;;;5051566;28;20423;-57
2024/02/03 05:23:15;;;;;;;4.80;3.50;;;8.40;99.90;;;;;;5051017;28;20122;-50
2024/02/03 05:25:41;;;;;;;5.45;4.07;;;8.30;99.90;;;;;;5051521;28;20510;-50
2024/02/03 05:28:06;;;;;;;5.35;4.15;;;8.30;99.90;;;;;;5033350;28;20025;-54
2024/02/03 05:30:32;;;;;;;5.05;4.07;;;8.30;99.90;;;;;;5051163;28;20023;-56
2024/02/03 05:32:57;;;;;;;5.65;3.83;;;8.30;99.90;;;;;;5033162;28;20528;-50
2024/02/03 05:35:23;;;;;;;7.18;3.75;;;8.30;99.90;;;;;;5033140;28;20060;-50
2024/02/03 05:37:48;;;;;;;4.05;3.65;;;8.30;99.90;;;;;;5051165;28;20524;-55
2024/02/03 05:40:14;;;;;;;4.07;3.45;;;8.40;99.90;;;;;;5051333;28;20040;-53
2024/02/03 05:42:39;;;;;;;3.58;3.35;;;8.40;99.90;;;;;;5033333;28;20150;-52
2024/02/03 05:45:05;;;;;;;3.67;3.30;;;8.40;99.90;;;;;;5033118;28;20056;-51
2024/02/03 05:47:31;;;;;;;3.90;3.47;;;8.40;99.90;;;;;;5033159;28;20051;-53
2024/02/03 05:49:56;;;;;;;5.47;3.55;;;8.40;99.90;;;;;;5033370;28;20028;-50
2024/02/03 05:52:22;;;;;;;3.42;2.80;;;8.40;99.90;;;;;;5050978;28;20025;-51
2024/02/03 05:54:48;;;;;;;7.57;4.13;;;8.40;99.90;;;;;;5050946;28;20383;-52
2024/02/03 05:57:13;;;;;;;4.32;3.45;;;8.40;99.90;;;;;;5051283;28;20100;-52
2024/02/03 05:59:45;;;;;;;4.25;3.40;;;8.40;99.90;;;;;;5033158;28;20497;-55
2024/02/03 06:02:11;;;;;;;4.50;3.25;;;8.40;99.90;;;;;;5051196;28;20082;-55
2024/02/03 06:04:39;;;;;;;4.88;3.30;;;8.40;99.90;;;;;;5050710;28;20021;-51
2024/02/03 06:07:05;;;;;;;3.42;3.13;;;8.40;99.90;;;;;;5050773;28;20021;-50
2024/02/03 06:09:30;;;;;;;4.97;4.13;;;8.40;99.90;;;;;;5033143;28;20028;-52
2024/02/03 06:11:56;;;;;;;3.85;3.50;;;8.30;99.90;;;;;;5050995;28;20160;-56
2024/02/03 06:14:22;;;;;;;3.33;3.13;;;8.30;99.90;;;;;;5032958;28;20509;-53
2024/02/03 06:16:48;;;;;;;3.55;3.00;;;8.30;99.90;;;;;;5033795;28;20017;-52
2024/02/03 06:19:13;;;;;;;3.92;3.47;;;8.30;99.90;;;;;;5055469;28;20031;-53
2024/02/03 06:21:39;;;;;;;5.30;3.47;;;8.30;99.90;;;;;;5055377;28;20021;-53
2024/02/03 06:24:05;;;;;;;4.93;3.15;;;8.30;99.90;;;;;;5055531;28;20400;-54
2024/02/03 06:26:31;;;;;;;3.65;3.30;;;8.30;99.90;;;;;;5055214;28;20056;-54
2024/02/03 06:28:57;;;;;;;2.95;2.70;;;8.30;99.90;;;;;;5054851;28;20482;-50
2024/02/03 06:31:23;;;;;;;6.00;4.00;;;8.30;99.90;;;;;;5054553;28;20060;-51
2024/02/03 06:33:48;;;;;;;4.47;4.07;;;8.30;99.90;;;;;;5036234;28;20048;-56
2024/02/03 06:36:14;;;;;;;6.88;3.95;;;8.20;99.90;;;;;;5036711;28;20426;-51
2024/02/03 06:38:40;;;;;;;5.85;4.25;;;8.20;99.90;;;;;;5055073;28;20086;-50
2024/02/03 06:41:05;;;;;;;4.30;3.90;;;8.20;99.90;;;;;;5039376;28;20482;-56
2024/02/03 06:43:31;;;;;;;5.70;4.80;;;8.20;99.90;;;;;;5058698;28;20078;-55
2024/02/03 06:45:56;;;;;;;5.97;4.13;;;8.10;99.90;;;;;;5040740;28;20025;-53
2024/02/03 06:48:22;;;;;;;6.05;4.53;;;8.10;99.90;;;;;;5040758;28;20513;-55
2024/02/03 06:50:49;;;;;;;4.28;3.88;;;8.10;99.90;;;;;;5039629;28;20605;-56
2024/02/03 06:53:15;;;;;;;4.25;3.85;;;8.10;99.90;;;;;;5053854;28;20021;-55
2024/02/03 06:55:40;;;;;;;6.40;4.30;;;8.10;99.90;;;;;;5056802;22;20052;-40
2024/02/03 06:58:06;;;;;;;5.55;3.78;;;8.10;99.90;;;;;;5033906;28;20037;-43
2024/02/03 07:00:31;;;;;;;7.88;5.35;;;8.20;99.90;;;;;;5033734;28;20560;-45
2024/02/03 07:02:57;;;;;;;3.35;3.05;;;8.20;99.90;;;;;;5033623;28;20025;-40
2024/02/03 07:05:22;;;;;;;5.18;3.50;;;8.20;99.90;;;;;;5033686;28;20021;-40
2024/02/03 07:07:48;;;;;;;4.40;4.00;;;8.20;99.90;;;;;;5033477;28;20372;-41
2024/02/03 07:10:14;;;;;;;4.10;3.70;;;8.20;99.90;;;;;;5032537;28;20029;-43
2024/02/03 07:12:39;;;;;;;4.20;3.75;;;8.20;99.90;;;;;;5033391;28;20071;-38
2024/02/03 07:15:05;;;;;;;4.93;4.13;;;8.20;99.90;;;;;;5033107;28;20490;-42
2024/02/03 07:17:31;;;;;;;4.88;3.90;;;8.20;99.90;;;;;;5034330;28;20029;-41
2024/02/03 07:19:57;;;;;;;3.72;3.42;;;8.20;99.90;;;;;;5032143;28;20021;-41
2024/02/03 07:22:22;;;;;;;4.50;4.05;;;8.20;99.90;;;;;;5033232;28;20435;-44
2024/02/03 07:24:48;;;;;;;3.92;3.45;;;8.20;99.90;;;;;;5034626;28;20437;-41
2024/02/03 07:27:13;;;;;;;5.32;3.47;;;8.20;99.90;;;;;;5036654;28;20076;-41
2024/02/03 07:29:39;;;;;;;3.60;3.30;;;8.30;99.90;;;;;;5037675;28;20025;-44
2024/02/03 07:32:05;;;;;;;3.75;3.42;;;8.30;99.90;;;;;;5037251;28;20025;-44
2024/02/03 07:34:30;;;;;;;3.45;3.15;;;8.20;99.90;;;;;;5037482;28;20029;-46
2024/02/03 07:36:56;;;;;;;4.25;3.60;;;8.30;99.90;;;;;;5037225;28;20040;-43
2024/02/03 07:39:22;;;;;;;4.00;3.60;;;8.30;99.90;;;;;;5035853;28;20497;-41
2024/02/03 07:41:47;;;;;;;3.92;3.58;;;8.30;99.90;;;;;;5033562;28;20100;-41
2024/02/03 07:44:14;;;;;;;4.72;3.67;;;8.30;99.90;;;;;;5031758;28;20052;-42
2024/02/03 07:46:40;;;;;;;4.53;3.97;;;8.40;99.90;;;;;;5030524;28;20178;-44
2024/02/03 07:49:06;;;;;;;3.38;3.05;;;8.40;99.90;;;;;;5033228;28;20036;-42
2024/02/03 07:51:32;;;;;;;4.05;3.63;;;8.40;99.90;;;;;;5032825;28;20395;-43
2024/02/03 07:53:58;;;;;;;5.15;3.50;;;8.40;99.90;;;;;;5032465;28;20022;-48
2024/02/03 07:56:23;;;;;;;8.32;3.33;;;8.40;99.90;;;;;;5031764;28;20041;-41
2024/02/03 07:58:51;;;;;;;3.70;3.30;;;8.40;99.90;;;;;;5032486;28;20025;-42
2024/02/03 08:01:20;;;;;;;3.75;3.15;;;8.40;99.90;;;;;;5032403;28;20033;-42
2024/02/03 08:03:45;;;;;;;3.60;2.95;;;8.50;99.90;;;;;;5036055;28;20022;-42
2024/02/03 08:06:11;;;;;;;3.15;2.85;;;8.50;99.90;;;;;;5032985;28;20037;-42
2024/02/03 08:08:36;;;;;;;4.20;3.20;;;8.50;99.90;;;;;;5033117;28;20394;-44
2024/02/03 08:11:02;;;;;;;2.83;2.63;;;8.60;99.90;;;;;;5033070;28;20103;-42
2024/02/03 08:13:27;;;;;;;2.92;2.53;;;8.60;99.90;;;;;;5032328;28;20017;-42
2024/02/03 08:15:53;;;;;;;2.55;2.35;;;8.70;99.90;;;;;;5032541;28;20025;-42
2024/02/03 08:18:18;;;;;;;2.78;2.53;;;8.70;99.90;;;;;;5031831;28;20034;-42
2024/02/03 08:20:44;;;;;;;8.55;3.13;;;8.70;99.90;;;;;;5031544;28;20064;-38
2024/02/03 08:23:10;;;;;;;2.70;2.50;;;8.70;99.90;;;;;;5031507;28;20029;-43
2024/02/03 08:25:35;;;;;;;2.17;2.08;;;8.80;99.90;;;;;;5031838;28;20017;-42
2024/02/03 08:28:01;;;;;;;2.47;2.28;;;8.80;99.90;;;;;;5030825;28;20482;-43
2024/02/03 08:30:26;;;;;;;2.47;2.38;;;8.80;99.90;;;;;;5031811;28;20026;-42
2024/02/03 08:32:52;;;;;;;2.60;2.40;;;8.90;99.90;;;;;;5030454;28;20017;-43
2024/02/03 08:35:17;;;;;;;3.55;2.10;;;8.90;99.90;;;;;;5031671;28;20025;-49
2024/02/03 08:37:43;;;;;;;2.10;2.00;;;8.90;99.90;;;;;;5031298;28;20030;-46
2024/02/03 08:40:08;;;;;;;2.58;2.42;;;9.00;99.90;;;;;;5025866;28;20076;-44
2024/02/03 08:42:34;;;;;;;2.25;2.05;;;8.90;99.90;;;;;;5011103;28;20038;-44
2024/02/03 08:45:00;;;;;;;2.33;2.13;;;9.00;99.90;;;;;;5028278;28;20105;-45
2024/02/03 08:47:25;;;;;;;2.10;1.95;;;9.00;99.90;;;;;;5031112;28;20414;-46
2024/02/03 08:49:56;;;;;;;2.92;2.65;;;9.00;99.90;;;;;;5030914;28;20119;-46
2024/02/03 08:52:22;;;;;;;2.88;2.08;;;9.00;99.90;;;;;;5031586;28;20028;-43
2024/02/03 08:54:47;;;;;;;2.50;1.90;;;9.00;99.90;;;;;;5031141;28;20025;-44
2024/02/03 08:57:13;;;;;;;1.52;1.42;;;9.00;99.90;;;;;;5031557;28;20471;-43
2024/02/03 08:59:38;;;;;;;1.85;1.75;;;9.00;99.90;;;;;;5031568;28;20113;-41
2024/02/03 09:02:04;;;;;;;2.38;1.77;;;9.00;99.90;;;;;;5031056;28;20183;-42
2024/02/03 09:04:30;;;;;;;2.20;2.00;;;9.10;99.90;;;;;;5027004;28;20061;-43
2024/02/03 09:06:55;;;;;;;2.00;1.90;;;9.10;99.90;;;;;;5030605;28;20025;-43
2024/02/03 09:09:21;;;;;;;1.80;1.70;;;9.20;99.90;;;;;;5030980;28;20394;-41
2024/02/03 09:11:47;;;;;;;1.90;1.80;;;9.20;99.90;;;;;;5031281;28;20112;-41
2024/02/03 09:14:12;;;;;;;1.75;1.65;;;9.20;99.90;;;;;;5030978;28;20109;-43
2024/02/03 09:16:38;;;;;;;4.18;1.63;;;9.30;99.90;;;;;;5031410;28;20018;-44
2024/02/03 09:19:03;;;;;;;2.10;2.00;;;9.40;99.90;;;;;;5031458;28;20025;-40
2024/02/03 09:21:29;;;;;;;1.58;1.50;;;9.40;99.90;;;;;;5031750;28;20037;-42
2024/02/03 09:23:54;;;;;;;2.25;1.67;;;9.50;99.90;;;;;;5030982;28;20060;-50
2024/02/03 09:26:20;;;;;;;1.23;1.23;;;9.50;99.90;;;;;;5031142;28;20033;-41
2024/02/03 09:28:46;;;;;;;1.52;1.42;;;9.50;99.90;;;;;;5029867;28;20552;-41
2024/02/03 09:31:18;;;;;;;1.95;1.42;;;9.50;99.90;;;;;;5031297;28;20025;-43
2024/02/03 09:33:44;;;;;;;3.67;1.95;;;9.50;99.90;;;;;;5030823;28;20028;-43
2024/02/03 09:36:09;;;;;;;3.45;1.40;;;9.50;99.90;;;;;;5031270;28;20026;-42
2024/02/03 09:38:35;;;;;;;1.58;1.48;;;9.50;99.90;;;;;;5031185;28;20025;-42
2024/02/03 09:41:01;;;;;;;1.50;1.40;;;9.60;99.90;;;;;;5030404;28;20040;-44
2024/02/03 09:43:27;;;;;;;1.45;1.35;;;9.60;99.90;;;;;;5030515;28;20092;-43
2024/02/03 09:45:53;;;;;;;1.60;1.50;;;9.60;99.90;;;;;;5031645;28;20029;-42
2024/02/03 09:48:18;;;;;;;1.35;1.27;;;9.60;99.90;;;;;;5033833;28;20394;-43
2024/02/03 09:50:44;;;;;;;1.60;1.25;;;9.50;99.90;;;;;;5035714;28;20532;-45
2024/02/03 09:53:10;;;;;;;1.40;1.30;;;9.50;99.90;;;;;;5027020;28;20050;-47
2024/02/03 09:55:36;;;;;;;1.17;1.17;;;9.60;99.90;;;;;;5050510;28;20062;-44
2024/02/03 09:58:02;;;;;;;1.50;1.40;;;9.60;99.90;;;;;;5034751;28;20501;-42
2024/02/03 10:00:28;;;;;;;1.15;1.10;;;9.60;99.90;;;;;;5033072;28;20394;-42
2024/02/03 10:02:54;;;;;;;1.08;1.08;;;9.60;99.90;;;;;;5027978;28;20029;-39
2024/02/03 10:05:30;;;;;;;3.35;1.10;;;9.60;99.90;;;;;;5035055;28;20660;-45
2024/02/03 10:08:04;;;;;;;1.20;1.10;;;9.60;99.90;;;;;;5034161;28;20498;-42
2024/02/03 10:10:32;;;;;;;1.20;1.10;;;9.60;99.90;;;;;;5035059;28;20104;-41
2024/02/03 10:13:08;;;;;;;2.85;1.08;;;9.60;99.90;;;;;;5034685;28;20079;-43
2024/02/03 10:15:35;;;;;;;1.50;1.40;;;9.70;99.90;;;;;;5027210;28;20041;-47
2024/02/03 10:18:00;;;;;;;1.02;0.93;;;9.60;99.90;;;;;;5029607;28;20021;-44
2024/02/03 10:20:27;;;;;;;1.10;1.05;;;9.60;99.90;;;;;;5034671;28;20036;-40
2024/02/03 10:22:52;;;;;;;0.90;0.90;;;9.60;99.90;;;;;;5034286;28;20426;-38
2024/02/03 10:25:27;;;;;;;0.80;0.80;;;9.70;99.90;;;;;;5033045;28;20025;-43
2024/02/03 10:28:00;;;;;;;0.90;0.90;;;9.70;99.90;;;;;;5034704;28;20534;-41
2024/02/03 10:30:29;;;;;;;0.90;0.90;;;9.70;99.90;;;;;;5034102;28;20572;-44
2024/02/03 10:32:59;;;;;;;1.00;1.00;;;9.70;99.90;;;;;;5034227;28;20026;-39
2024/02/03 10:35:29;;;;;;;0.85;0.85;;;9.60;99.90;;;;;;5034004;28;20138;-41
2024/02/03 10:37:55;;;;;;;1.50;1.00;;;9.70;99.90;;;;;;5034622;28;20056;-42
2024/02/03 10:40:24;;;;;;;1.00;1.00;;;9.70;99.90;;;;;;5034104;28;20033;-42
2024/02/03 10:42:52;;;;;;;0.90;0.90;;;9.80;99.90;;;;;;5033974;28;20510;-46
2024/02/03 10:45:19;;;;;;;0.93;0.93;;;9.80;99.90;;;;;;5033773;28;20056;-42
2024/02/03 10:47:47;;;;;;;0.82;0.82;;;9.80;99.90;;;;;;5033991;28;20026;-43
2024/02/03 10:50:14;;;;;;;0.80;0.80;;;9.80;99.90;;;;;;5034187;28;20013;-42
2024/02/03 10:52:44;;;;;;;1.15;1.15;;;9.80;99.90;;;;;;5033876;28;20475;-42
2024/02/03 10:55:14;;;;;;;0.73;0.73;;;9.90;99.90;;;;;;5033551;28;20405;-42
2024/02/03 10:57:42;;;;;;;0.85;0.85;;;9.90;99.90;;;;;;5033759;28;20079;-42
2024/02/03 11:00:09;;;;;;;0.98;0.98;;;9.90;99.90;;;;;;5033760;28;20483;-43
2024/02/03 11:02:35;;;;;;;1.00;1.00;;;10.00;99.90;;;;;;5033103;28;20029;-42
2024/02/03 11:05:00;;;;;;;1.08;1.08;;;10.00;99.90;;;;;;5033544;28;20514;-46
2024/02/03 11:07:27;;;;;;;0.70;0.70;;;10.10;99.90;;;;;;5034098;28;20036;-42
2024/02/03 11:09:54;;;;;;;0.88;0.88;;;10.10;99.90;;;;;;5032226;28;20400;-44
2024/02/03 11:12:19;;;;;;;1.08;1.08;;;10.10;99.90;;;;;;5022116;28;20573;-41
2024/02/03 11:14:46;;;;;;;1.10;1.10;;;10.20;99.90;;;;;;5017177;28;20179;-43
2024/02/03 11:17:13;;;;;;;1.15;0.93;;;10.20;99.90;;;;;;5033461;28;20389;-41
2024/02/03 11:19:39;;;;;;;1.08;1.08;;;10.20;99.90;;;;;;5033345;28;20028;-48
2024/02/03 11:22:05;;;;;;;1.50;1.40;;;10.20;99.90;;;;;;5032548;28;20491;-40
2024/02/03 11:24:34;;;;;;;8.18;5.88;;;10.30;99.90;;;;;;5031499;28;20032;-42
2024/02/03 11:27:07;;;;;;;1.13;1.13;;;10.40;99.90;;;;;;5026434;28;20036;-44
2024/02/03 11:29:34;;;;;;;1.20;1.10;;;10.40;99.90;;;;;;5024140;28;20018;-44
2024/02/03 11:32:04;;;;;;;0.88;0.85;;;10.60;99.90;;;;;;5031853;28;20029;-47
2024/02/03 11:34:32;;;;;;;1.10;1.08;;;10.60;99.90;;;;;;5032450;28;20079;-42
2024/02/03 11:36:59;;;;;;;0.90;0.90;;;10.70;99.90;;;;;;5032106;28;20026;-43
2024/02/03 11:39:32;;;;;;;0.90;0.90;;;10.70;99.90;;;;;;5032754;28;20375;-42
2024/02/03 11:42:08;;;;;;;1.08;1.08;;;10.80;99.90;;;;;;5032123;28;20046;-42
2024/02/03 11:44:35;;;;;;;1.48;1.38;;;10.80;99.90;;;;;;5032002;28;20042;-42
2024/02/03 11:47:01;;;;;;;1.15;1.00;;;10.90;99.90;;;;;;5032580;28;20029;-42
2024/02/03 11:49:27;;;;;;;0.80;0.80;;;10.90;99.90;;;;;;5032416;28;20493;-44
2024/02/03 11:52:00;;;;;;;0.90;0.90;;;10.90;99.90;;;;;;5033912;28;20446;-44
2024/02/03 11:54:25;;;;;;;0.75;0.75;;;10.90;99.90;;;;;;5033083;28;20018;-44
2024/02/03 11:56:51;;;;;;;0.65;0.65;;;11.00;99.90;;;;;;5033063;28;20522;-44
2024/02/03 11:59:30;;;;;;;0.75;0.75;;;11.00;99.90;;;;;;5032537;28;20075;-40
2024/02/03 12:01:56;;;;;;;0.65;0.65;;;11.00;99.90;;;;;;5032419;28;20025;-43
2024/02/03 12:04:23;;;;;;;0.60;0.60;;;11.00;99.90;;;;;;5032249;28;20022;-41
2024/02/03 12:06:49;;;;;;;0.80;0.80;;;10.90;99.90;;;;;;5031969;28;20030;-44
2024/02/03 12:09:18;;;;;;;0.80;0.80;;;10.90;99.90;;;;;;5032649;28;20029;-43
2024/02/03 12:11:49;;;;;;;1.20;1.20;;;10.90;99.90;;;;;;5031670;28;20029;-42
2024/02/03 12:14:15;;;;;;;1.00;0.90;;;10.80;99.90;;;;;;5030900;28;20056;-42
2024/02/03 12:16:42;;;;;;;0.80;0.80;;;10.90;99.90;;;;;;5032141;28;20099;-42
2024/02/03 12:19:09;;;;;;;1.20;0.95;;;10.90;99.90;;;;;;5032430;28;20040;-43
2024/02/03 12:21:35;;;;;;;1.00;1.00;;;10.90;99.90;;;;;;5032208;28;20057;-41
2024/02/03 12:24:01;;;;;;;1.15;0.90;;;11.00;99.90;;;;;;5029956;28;20037;-41
2024/02/03 12:26:27;;;;;;;0.70;0.70;;;10.90;99.90;;;;;;5031711;28;20029;-41
2024/02/03 12:28:53;;;;;;;0.80;0.80;;;10.90;99.90;;;;;;5031696;28;20025;-43
2024/02/03 12:31:18;;;;;;;1.10;1.10;;;10.90;99.90;;;;;;5031967;28;20021;-42
2024/02/03 12:33:44;;;;;;;1.00;1.00;;;10.90;99.90;;;;;;5031626;28;20101;-43
2024/02/03 12:36:10;;;;;;;0.77;0.75;;;10.90;99.90;;;;;;5031181;28;20107;-42
2024/02/03 12:38:36;;;;;;;0.90;0.90;;;10.90;99.90;;;;;;5031709;28;20063;-41
2024/02/03 12:41:02;;;;;;;0.82;0.82;;;10.90;99.90;;;;;;5031798;28;20032;-37
2024/02/03 12:43:27;;;;;;;0.80;0.80;;;10.90;99.90;;;;;;5029936;28;20025;-42
2024/02/03 12:45:53;;;;;;;0.95;0.90;;;10.90;99.90;;;;;;5031200;28;20034;-39
2024/02/03 12:48:18;;;;;;;0.82;0.82;;;11.00;99.90;;;;;;5031701;28;20021;-42